PWSweather.com
Personal Weather Stations
Station Observations
CW4114
Near Downtown, Rogers City, MI 49779

Near DowntownRogers City, MI 49779

Lat: 45.417443, Lon: -83.810642

Elevation: 605

Station Type: Davis Vantage Pro2 w/Solar

Latest ConditionsUpdated 8:02:42 PM EST Friday, Nov 28, 2014
Currently Today's Max Today's Min Today's Average
Temperature 21.9°F-5.6°C 24.3°F-4.3°C 16.2°F-8.8°C 19.9°F-6.7°C
Dew Point 18.9°F-7.3°C 19.2°F-7.1°C 12.7°F-10.7°C 15.9°F-8.9°C
Winds 6.0 mph S9.7 kmh S 6.0 mph S9.7 kmh S - 4.1 mph 6.6 kmh
Wind Gusts 13.0 mph20.9 kmh 14.1 mph22.7 kmh - -
Humidity 88% 91% 75% 85%
Pressure 30.12 in1020.0 mb 30.32 in1026.8 mb 30.12 in1020.0 mb -
Precipitation - 0.05 in1.3 mm - -
Hour Temp Dew Point Humidity Winds Wind Gusts Pressure Precip Precip Rate Daily Precip Total
08:02 PM 21.9°F-5.6°C 18.9°F-7.3°C 88% 6.0 mph S9.7 kmh S 13.0 mph20.9 kmh 30.12 in1020.0 mb 0.00 in0.0 mm 0.00 in/hr0.0 mm/hr 0.05 in1.3 mm
07:57 PM 21.9°F-5.6°C 18.9°F-7.3°C 88% 4.9 mph S7.9 kmh S 11.0 mph17.7 kmh 30.12 in1020.0 mb 0.00 in0.0 mm 0.00 in/hr0.0 mm/hr 0.05 in1.3 mm
07:52 PM 21.9°F-5.6°C 18.9°F-7.3°C 88% 4.9 mph SSE7.9 kmh SSE 10.1 mph16.3 kmh 30.13 in1020.3 mb 0.00 in0.0 mm 0.00 in/hr0.0 mm/hr 0.05 in1.3 mm
07:47 PM 21.9°F-5.6°C 19.2°F-7.1°C 89% 4.9 mph SSW7.9 kmh SSW 8.9 mph14.3 kmh 30.13 in1020.3 mb 0.00 in0.0 mm 0.00 in/hr0.0 mm/hr 0.05 in1.3 mm
07:42 PM 21.9°F-5.6°C 18.9°F-7.3°C 88% 4.9 mph S7.9 kmh S 10.1 mph16.3 kmh 30.13 in1020.3 mb 0.00 in0.0 mm 0.00 in/hr0.0 mm/hr 0.05 in1.3 mm
07:37 PM 21.9°F-5.6°C 18.9°F-7.3°C 88% 4.9 mph SE7.9 kmh SE 8.1 mph13.0 kmh 30.14 in1020.7 mb 0.00 in0.0 mm 0.00 in/hr0.0 mm/hr 0.05 in1.3 mm
07:32 PM 21.9°F-5.6°C 18.9°F-7.3°C 88% 4.9 mph SW7.9 kmh SW 10.1 mph16.3 kmh 30.14 in1020.7 mb 0.00 in0.0 mm 0.00 in/hr0.0 mm/hr 0.05 in1.3 mm
07:27 PM 22.1°F-5.5°C 19.0°F-7.2°C 88% 4.9 mph SW7.9 kmh SW 11.0 mph17.7 kmh 30.14 in1020.7 mb 0.00 in0.0 mm 0.00 in/hr0.0 mm/hr 0.05 in1.3 mm
07:22 PM 22.1°F-5.5°C 19.0°F-7.2°C 88% 4.9 mph SW7.9 kmh SW 10.1 mph16.3 kmh 30.14 in1020.7 mb 0.00 in0.0 mm 0.00 in/hr0.0 mm/hr 0.05 in1.3 mm
07:17 PM 22.1°F-5.5°C 19.0°F-7.2°C 88% 4.9 mph SSW7.9 kmh SSW 13.0 mph20.9 kmh 30.14 in1020.7 mb 0.00 in0.0 mm 0.00 in/hr0.0 mm/hr 0.05 in1.3 mm
07:12 PM 22.3°F-5.4°C 19.2°F-7.1°C 88% 4.9 mph SSW7.9 kmh SSW 8.9 mph14.3 kmh 30.14 in1020.7 mb 0.00 in0.0 mm 0.00 in/hr0.0 mm/hr 0.05 in1.3 mm
07:07 PM 22.3°F-5.4°C 19.0°F-7.2°C 87% 4.9 mph SSW7.9 kmh SSW 8.9 mph14.3 kmh 30.14 in1020.7 mb 0.00 in0.0 mm 0.00 in/hr0.0 mm/hr 0.05 in1.3 mm
07:02 PM 22.3°F-5.4°C 19.0°F-7.2°C 87% 4.9 mph SW7.9 kmh SW 8.9 mph14.3 kmh 30.14 in1020.7 mb 0.00 in0.0 mm 0.00 in/hr0.0 mm/hr 0.05 in1.3 mm
06:57 PM 22.3°F-5.4°C 19.0°F-7.2°C 87% 4.9 mph S7.9 kmh S 10.1 mph16.3 kmh 30.14 in1020.7 mb 0.00 in0.0 mm 0.00 in/hr0.0 mm/hr 0.05 in1.3 mm
06:52 PM 22.5°F-5.3°C 18.9°F-7.3°C 86% 4.9 mph S7.9 kmh S 10.1 mph16.3 kmh 30.14 in1020.7 mb 0.00 in0.0 mm 0.00 in/hr0.0 mm/hr 0.05 in1.3 mm
06:47 PM 22.5°F-5.3°C 19.2°F-7.1°C 87% 4.0 mph SW6.4 kmh SW 8.1 mph13.0 kmh 30.13 in1020.3 mb 0.00 in0.0 mm 0.00 in/hr0.0 mm/hr 0.05 in1.3 mm
06:42 PM 22.5°F-5.3°C 19.2°F-7.1°C 87% 4.0 mph SSW6.4 kmh SSW 8.1 mph13.0 kmh 30.14 in1020.7 mb 0.00 in0.0 mm 0.00 in/hr0.0 mm/hr 0.05 in1.3 mm
06:37 PM 22.5°F-5.3°C 18.9°F-7.3°C 86% 4.9 mph SSE7.9 kmh SSE 8.1 mph13.0 kmh 30.14 in1020.7 mb 0.00 in0.0 mm 0.00 in/hr0.0 mm/hr 0.05 in1.3 mm
06:32 PM 22.5°F-5.3°C 18.9°F-7.3°C 86% 4.9 mph SSW7.9 kmh SSW 10.1 mph16.3 kmh 30.14 in1020.7 mb 0.00 in0.0 mm 0.00 in/hr0.0 mm/hr 0.05 in1.3 mm
06:27 PM 22.5°F-5.3°C 18.9°F-7.3°C 86% 4.0 mph S6.4 kmh S 8.9 mph14.3 kmh 30.14 in1020.7 mb 0.00 in0.0 mm 0.00 in/hr0.0 mm/hr 0.05 in1.3 mm
06:22 PM 22.5°F-5.3°C 18.9°F-7.3°C 86% 4.0 mph SSW6.4 kmh SSW 8.9 mph14.3 kmh 30.14 in1020.7 mb 0.00 in0.0 mm 0.00 in/hr0.0 mm/hr 0.05 in1.3 mm
06:17 PM 22.5°F-5.3°C 18.7°F-7.4°C 85% 4.0 mph SW6.4 kmh SW 8.9 mph14.3 kmh 30.14 in1020.7 mb 0.00 in0.0 mm 0.00 in/hr0.0 mm/hr 0.05 in1.3 mm
06:12 PM 22.5°F-5.3°C 18.9°F-7.3°C 86% 4.9 mph SSW7.9 kmh SSW 9.0 mph14.5 kmh 30.14 in1020.7 mb 0.00 in0.0 mm 0.00 in/hr0.0 mm/hr 0.05 in1.3 mm
06:07 PM 22.5°F-5.3°C 18.7°F-7.4°C 85% 4.0 mph SW6.4 kmh SW 8.1 mph13.0 kmh 30.14 in1020.7 mb 0.00 in0.0 mm 0.00 in/hr0.0 mm/hr 0.05 in1.3 mm
06:02 PM 22.5°F-5.3°C 18.7°F-7.4°C 85% 4.9 mph SSW7.9 kmh SSW 8.9 mph14.3 kmh 30.14 in1020.7 mb 0.00 in0.0 mm 0.00 in/hr0.0 mm/hr 0.05 in1.3 mm
05:57 PM 22.6°F-5.2°C 18.5°F-7.5°C 84% 4.9 mph S7.9 kmh S 12.1 mph19.5 kmh 30.14 in1020.7 mb 0.00 in0.0 mm 0.00 in/hr0.0 mm/hr 0.05 in1.3 mm
05:52 PM 22.6°F-5.2°C 18.5°F-7.5°C 84% 4.9 mph SSW7.9 kmh SSW 10.1 mph16.3 kmh 30.14 in1020.7 mb 0.00 in0.0 mm 0.00 in/hr0.0 mm/hr 0.05 in1.3 mm
05:47 PM 22.6°F-5.2°C 18.5°F-7.5°C 84% 4.0 mph S6.4 kmh S 12.0 mph19.3 kmh 30.14 in1020.7 mb 0.00 in0.0 mm 0.00 in/hr0.0 mm/hr 0.05 in1.3 mm
05:42 PM 22.8°F-5.1°C 18.7°F-7.4°C 84% 4.0 mph SSW6.4 kmh SSW 8.1 mph13.0 kmh 30.14 in1020.7 mb 0.00 in0.0 mm 0.00 in/hr0.0 mm/hr 0.05 in1.3 mm
05:37 PM 22.8°F-5.1°C 18.5°F-7.5°C 83% 4.0 mph S6.4 kmh S 10.1 mph16.3 kmh 30.14 in1020.7 mb 0.00 in0.0 mm 0.00 in/hr0.0 mm/hr 0.05 in1.3 mm
05:32 PM 22.8°F-5.1°C 18.5°F-7.5°C 83% 4.0 mph S6.4 kmh S 6.9 mph11.1 kmh 30.14 in1020.7 mb 0.00 in0.0 mm 0.00 in/hr0.0 mm/hr 0.05 in1.3 mm
05:27 PM 22.8°F-5.1°C 18.1°F-7.7°C 82% 4.0 mph SSE6.4 kmh SSE 8.1 mph13.0 kmh 30.14 in1020.7 mb 0.00 in0.0 mm 0.00 in/hr0.0 mm/hr 0.05 in1.3 mm
05:22 PM 22.8°F-5.1°C 18.1°F-7.7°C 82% 4.0 mph S6.4 kmh S 8.1 mph13.0 kmh 30.14 in1020.7 mb 0.00 in0.0 mm 0.00 in/hr0.0 mm/hr 0.05 in1.3 mm
05:17 PM 23.0°F-5.0°C 18.3°F-7.6°C 82% 4.0 mph SW6.4 kmh SW 6.9 mph11.1 kmh 30.15 in1021.0 mb 0.00 in0.0 mm 0.00 in/hr0.0 mm/hr 0.05 in1.3 mm
05:12 PM 23.0°F-5.0°C 18.0°F-7.8°C 81% 2.9 mph SW4.7 kmh SW 6.9 mph11.1 kmh 30.15 in1021.0 mb 0.00 in0.0 mm 0.00 in/hr0.0 mm/hr 0.05 in1.3 mm
05:07 PM 23.0°F-5.0°C 18.0°F-7.8°C 81% 2.9 mph SSW4.7 kmh SSW 6.9 mph11.1 kmh 30.15 in1021.0 mb 0.00 in0.0 mm 0.00 in/hr0.0 mm/hr 0.05 in1.3 mm
05:02 PM 23.2°F-4.9°C 18.1°F-7.7°C 81% 2.9 mph SSW4.7 kmh SSW 6.9 mph11.1 kmh 30.15 in1021.0 mb 0.00 in0.0 mm 0.00 in/hr0.0 mm/hr 0.05 in1.3 mm
04:57 PM 23.2°F-4.9°C 18.1°F-7.7°C 81% 4.0 mph S6.4 kmh S 8.1 mph13.0 kmh 30.15 in1021.0 mb 0.00 in0.0 mm 0.00 in/hr0.0 mm/hr 0.05 in1.3 mm
04:52 PM 23.2°F-4.9°C 18.1°F-7.7°C 81% 2.9 mph SSW4.7 kmh SSW 8.1 mph13.0 kmh 30.15 in1021.0 mb 0.00 in0.0 mm 0.00 in/hr0.0 mm/hr 0.05 in1.3 mm
04:47 PM 23.2°F-4.9°C 18.1°F-7.7°C 81% 2.9 mph S4.7 kmh S 6.9 mph11.1 kmh 30.15 in1021.0 mb 0.00 in0.0 mm 0.00 in/hr0.0 mm/hr 0.05 in1.3 mm
04:42 PM 23.2°F-4.9°C 18.1°F-7.7°C 81% 2.9 mph SW4.7 kmh SW 6.0 mph9.7 kmh 30.16 in1021.3 mb 0.00 in0.0 mm 0.00 in/hr0.0 mm/hr 0.05 in1.3 mm
04:37 PM 23.2°F-4.9°C 18.1°F-7.7°C 81% 2.9 mph SW4.7 kmh SW 6.0 mph9.7 kmh 30.16 in1021.3 mb 0.00 in0.0 mm 0.00 in/hr0.0 mm/hr 0.05 in1.3 mm
04:32 PM 23.2°F-4.9°C 18.0°F-7.8°C 80% 4.0 mph SSE6.4 kmh SSE 6.9 mph11.1 kmh 30.15 in1021.0 mb 0.00 in0.0 mm 0.00 in/hr0.0 mm/hr 0.05 in1.3 mm
04:27 PM 23.2°F-4.9°C 18.0°F-7.8°C 80% 4.0 mph S6.4 kmh S 9.0 mph14.5 kmh 30.15 in1021.0 mb 0.00 in0.0 mm 0.00 in/hr0.0 mm/hr 0.05 in1.3 mm
04:22 PM 23.4°F-4.8°C 18.1°F-7.7°C 80% 4.0 mph SW6.4 kmh SW 6.9 mph11.1 kmh 30.16 in1021.3 mb 0.00 in0.0 mm 0.00 in/hr0.0 mm/hr 0.05 in1.3 mm
04:17 PM 23.4°F-4.8°C 18.1°F-7.7°C 80% 4.0 mph SW6.4 kmh SW 6.0 mph9.7 kmh 30.15 in1021.0 mb 0.00 in0.0 mm 0.00 in/hr0.0 mm/hr 0.05 in1.3 mm
04:12 PM 23.4°F-4.8°C 18.1°F-7.7°C 80% 4.0 mph S6.4 kmh S 8.1 mph13.0 kmh 30.16 in1021.3 mb 0.00 in0.0 mm 0.00 in/hr0.0 mm/hr 0.05 in1.3 mm
04:07 PM 23.4°F-4.8°C 18.1°F-7.7°C 80% 4.0 mph SW6.4 kmh SW 8.1 mph13.0 kmh 30.16 in1021.3 mb 0.00 in0.0 mm 0.00 in/hr0.0 mm/hr 0.05 in1.3 mm
04:02 PM 23.4°F-4.8°C 18.1°F-7.7°C 80% 4.0 mph S6.4 kmh S 8.9 mph14.3 kmh 30.16 in1021.3 mb 0.00 in0.0 mm 0.00 in/hr0.0 mm/hr 0.05 in1.3 mm
03:57 PM 23.4°F-4.8°C 17.8°F-7.9°C 79% 4.0 mph SSW6.4 kmh SSW 8.9 mph14.3 kmh 30.16 in1021.3 mb 0.00 in0.0 mm 0.00 in/hr0.0 mm/hr 0.05 in1.3 mm
03:52 PM 23.5°F-4.7°C 18.0°F-7.8°C 79% 4.0 mph SW6.4 kmh SW 9.0 mph14.5 kmh 30.16 in1021.3 mb 0.00 in0.0 mm 0.00 in/hr0.0 mm/hr 0.05 in1.3 mm
03:47 PM 23.7°F-4.6°C 18.1°F-7.7°C 79% 2.9 mph SW4.7 kmh SW 6.9 mph11.1 kmh 30.16 in1021.3 mb 0.00 in0.0 mm 0.00 in/hr0.0 mm/hr 0.05 in1.3 mm
03:42 PM 23.7°F-4.6°C 18.1°F-7.7°C 79% 2.9 mph SW4.7 kmh SW 8.1 mph13.0 kmh 30.16 in1021.3 mb 0.00 in0.0 mm 0.00 in/hr0.0 mm/hr 0.05 in1.3 mm
03:37 PM 23.7°F-4.6°C 18.1°F-7.7°C 79% 4.0 mph SW6.4 kmh SW 4.9 mph7.9 kmh 30.16 in1021.3 mb 0.00 in0.0 mm 0.00 in/hr0.0 mm/hr 0.05 in1.3 mm
03:32 PM 23.7°F-4.6°C 17.6°F-8.0°C 77% 4.9 mph SW7.9 kmh SW 10.1 mph16.3 kmh 30.16 in1021.3 mb 0.00 in0.0 mm 0.00 in/hr0.0 mm/hr 0.05 in1.3 mm
03:27 PM 23.7°F-4.6°C 17.6°F-8.0°C 77% 4.9 mph SW7.9 kmh SW 8.9 mph14.3 kmh 30.16 in1021.3 mb 0.00 in0.0 mm 0.00 in/hr0.0 mm/hr 0.05 in1.3 mm
03:22 PM 23.7°F-4.6°C 17.6°F-8.0°C 77% 4.0 mph SSW6.4 kmh SSW 11.0 mph17.7 kmh 30.16 in1021.3 mb 0.00 in0.0 mm 0.00 in/hr0.0 mm/hr 0.05 in1.3 mm
03:17 PM 23.7°F-4.6°C 17.6°F-8.0°C 77% 4.0 mph SW6.4 kmh SW 9.0 mph14.5 kmh 30.16 in1021.3 mb 0.00 in0.0 mm 0.00 in/hr0.0 mm/hr 0.05 in1.3 mm
03:12 PM 23.7°F-4.6°C 17.6°F-8.0°C 77% 4.9 mph SW7.9 kmh SW 8.1 mph13.0 kmh 30.16 in1021.3 mb 0.00 in0.0 mm 0.00 in/hr0.0 mm/hr 0.05 in1.3 mm
03:07 PM 23.9°F-4.5°C 17.8°F-7.9°C 77% 6.0 mph SW9.7 kmh SW 9.0 mph14.5 kmh 30.17 in1021.7 mb 0.00 in0.0 mm 0.00 in/hr0.0 mm/hr 0.05 in1.3 mm
03:02 PM 24.1°F-4.4°C 17.6°F-8.0°C 76% 4.9 mph WSW7.9 kmh WSW 9.0 mph14.5 kmh 30.17 in1021.7 mb 0.00 in0.0 mm 0.00 in/hr0.0 mm/hr 0.05 in1.3 mm
02:57 PM 24.1°F-4.4°C 17.6°F-8.0°C 76% 4.0 mph SW6.4 kmh SW 8.1 mph13.0 kmh 30.17 in1021.7 mb 0.00 in0.0 mm 0.00 in/hr0.0 mm/hr 0.05 in1.3 mm
02:52 PM 24.1°F-4.4°C 17.6°F-8.0°C 76% 4.9 mph W7.9 kmh W 6.9 mph11.1 kmh 30.17 in1021.7 mb 0.00 in0.0 mm 0.00 in/hr0.0 mm/hr 0.05 in1.3 mm
02:47 PM 24.1°F-4.4°C 17.2°F-8.2°C 75% 4.9 mph SW7.9 kmh SW 8.9 mph14.3 kmh 30.18 in1022.0 mb 0.00 in0.0 mm 0.00 in/hr0.0 mm/hr 0.05 in1.3 mm
02:42 PM 24.3°F-4.3°C 17.4°F-8.1°C 75% 4.0 mph SW6.4 kmh SW 8.9 mph14.3 kmh 30.18 in1022.0 mb 0.00 in0.0 mm 0.00 in/hr0.0 mm/hr 0.05 in1.3 mm
02:37 PM 24.1°F-4.4°C 17.6°F-8.0°C 76% 4.0 mph SSW6.4 kmh SSW 6.0 mph9.7 kmh 30.18 in1022.0 mb 0.00 in0.0 mm 0.00 in/hr0.0 mm/hr 0.05 in1.3 mm
02:32 PM 23.9°F-4.5°C 17.4°F-8.1°C 76% 4.9 mph SW7.9 kmh SW 8.1 mph13.0 kmh 30.18 in1022.0 mb 0.00 in0.0 mm 0.00 in/hr0.0 mm/hr 0.05 in1.3 mm
02:27 PM 23.7°F-4.6°C 17.2°F-8.2°C 76% 4.0 mph SW6.4 kmh SW 8.1 mph13.0 kmh 30.18 in1022.0 mb 0.00 in0.0 mm 0.00 in/hr0.0 mm/hr 0.05 in1.3 mm
02:22 PM 23.5°F-4.7°C 17.1°F-8.3°C 76% 4.0 mph SW6.4 kmh SW 6.9 mph11.1 kmh 30.17 in1021.7 mb 0.00 in0.0 mm 0.00 in/hr0.0 mm/hr 0.05 in1.3 mm
02:17 PM 23.5°F-4.7°C 16.7°F-8.5°C 75% 4.0 mph SW6.4 kmh SW 8.1 mph13.0 kmh 30.18 in1022.0 mb 0.00 in0.0 mm 0.00 in/hr0.0 mm/hr 0.05 in1.3 mm
02:12 PM 23.5°F-4.7°C 16.7°F-8.5°C 75% 4.0 mph SSW6.4 kmh SSW 8.1 mph13.0 kmh 30.18 in1022.0 mb 0.00 in0.0 mm 0.00 in/hr0.0 mm/hr 0.05 in1.3 mm
02:07 PM 23.7°F-4.6°C 16.9°F-8.4°C 75% 4.0 mph SSW6.4 kmh SSW 6.0 mph9.7 kmh 30.18 in1022.0 mb 0.00 in0.0 mm 0.00 in/hr0.0 mm/hr 0.05 in1.3 mm
02:02 PM 23.7°F-4.6°C 16.9°F-8.4°C 75% 4.0 mph WSW6.4 kmh WSW 8.1 mph13.0 kmh 30.18 in1022.0 mb 0.00 in0.0 mm 0.00 in/hr0.0 mm/hr 0.05 in1.3 mm
01:57 PM 23.7°F-4.6°C 16.9°F-8.4°C 75% 4.0 mph S6.4 kmh S 8.1 mph13.0 kmh 30.19 in1022.4 mb 0.00 in0.0 mm 0.00 in/hr0.0 mm/hr 0.05 in1.3 mm
01:52 PM 23.7°F-4.6°C 16.9°F-8.4°C 75% 4.9 mph SSW7.9 kmh SSW 6.0 mph9.7 kmh 30.19 in1022.4 mb 0.00 in0.0 mm 0.00 in/hr0.0 mm/hr 0.05 in1.3 mm
01:47 PM 23.5°F-4.7°C 16.7°F-8.5°C 75% 4.9 mph SW7.9 kmh SW 10.1 mph16.3 kmh 30.19 in1022.4 mb 0.00 in0.0 mm 0.00 in/hr0.0 mm/hr 0.05 in1.3 mm
01:42 PM 23.7°F-4.6°C 16.9°F-8.4°C 75% 4.9 mph SSW7.9 kmh SSW 10.1 mph16.3 kmh 30.19 in1022.4 mb 0.00 in0.0 mm 0.00 in/hr0.0 mm/hr 0.05 in1.3 mm
01:37 PM 23.7°F-4.6°C 16.9°F-8.4°C 75% 4.9 mph SSW7.9 kmh SSW 8.9 mph14.3 kmh 30.20 in1022.7 mb 0.00 in0.0 mm 0.00 in/hr0.0 mm/hr 0.05 in1.3 mm
01:32 PM 23.7°F-4.6°C 16.9°F-8.4°C 75% 4.9 mph SW7.9 kmh SW 8.1 mph13.0 kmh 30.20 in1022.7 mb 0.00 in0.0 mm 0.00 in/hr0.0 mm/hr 0.05 in1.3 mm
01:27 PM 23.7°F-4.6°C 16.9°F-8.4°C 75% 4.9 mph SW7.9 kmh SW 8.9 mph14.3 kmh 30.20 in1022.7 mb 0.00 in0.0 mm 0.00 in/hr0.0 mm/hr 0.05 in1.3 mm
01:22 PM 23.7°F-4.6°C 16.9°F-8.4°C 75% 4.0 mph WSW6.4 kmh WSW 8.1 mph13.0 kmh 30.20 in1022.7 mb 0.00 in0.0 mm 0.00 in/hr0.0 mm/hr 0.05 in1.3 mm
01:17 PM 23.5°F-4.7°C 17.1°F-8.3°C 76% 4.9 mph WSW7.9 kmh WSW 10.1 mph16.3 kmh 30.20 in1022.7 mb 0.00 in0.0 mm 0.00 in/hr0.0 mm/hr 0.05 in1.3 mm
01:12 PM 23.5°F-4.7°C 16.7°F-8.5°C 75% 4.9 mph WSW7.9 kmh WSW 10.1 mph16.3 kmh 30.21 in1023.0 mb 0.00 in0.0 mm 0.00 in/hr0.0 mm/hr 0.05 in1.3 mm
01:07 PM 23.4°F-4.8°C 16.9°F-8.4°C 76% 4.9 mph WSW7.9 kmh WSW 8.9 mph14.3 kmh 30.21 in1023.0 mb 0.00 in0.0 mm 0.00 in/hr0.0 mm/hr 0.05 in1.3 mm
01:02 PM 23.2°F-4.9°C 16.7°F-8.5°C 76% 6.0 mph SW9.7 kmh SW 10.1 mph16.3 kmh 30.22 in1023.4 mb 0.00 in0.0 mm 0.00 in/hr0.0 mm/hr 0.05 in1.3 mm
12:57 PM 23.2°F-4.9°C 16.7°F-8.5°C 76% 6.0 mph SW9.7 kmh SW 12.1 mph19.5 kmh 30.22 in1023.4 mb 0.00 in0.0 mm 0.00 in/hr0.0 mm/hr 0.05 in1.3 mm
12:52 PM 23.0°F-5.0°C 16.9°F-8.4°C 77% 6.0 mph SW9.7 kmh SW 8.9 mph14.3 kmh 30.22 in1023.4 mb 0.00 in0.0 mm 0.00 in/hr0.0 mm/hr 0.05 in1.3 mm
12:47 PM 23.0°F-5.0°C 16.9°F-8.4°C 77% 6.0 mph WSW9.7 kmh WSW 11.0 mph17.7 kmh 30.22 in1023.4 mb 0.00 in0.0 mm 0.00 in/hr0.0 mm/hr 0.05 in1.3 mm
12:42 PM 23.2°F-4.9°C 17.1°F-8.3°C 77% 4.9 mph SW7.9 kmh SW 10.1 mph16.3 kmh 30.22 in1023.4 mb 0.00 in0.0 mm 0.00 in/hr0.0 mm/hr 0.05 in1.3 mm
12:37 PM 23.4°F-4.8°C 17.8°F-7.9°C 79% 4.0 mph WSW6.4 kmh WSW 8.9 mph14.3 kmh 30.22 in1023.4 mb 0.00 in0.0 mm 0.00 in/hr0.0 mm/hr 0.05 in1.3 mm
12:32 PM 23.0°F-5.0°C 17.4°F-8.1°C 79% 4.0 mph SW6.4 kmh SW 8.9 mph14.3 kmh 30.22 in1023.4 mb 0.00 in0.0 mm 0.00 in/hr0.0 mm/hr 0.05 in1.3 mm
12:27 PM 23.0°F-5.0°C 17.4°F-8.1°C 79% 4.9 mph SW7.9 kmh SW 8.1 mph13.0 kmh 30.23 in1023.7 mb 0.00 in0.0 mm 0.00 in/hr0.0 mm/hr 0.05 in1.3 mm
12:22 PM 22.8°F-5.1°C 17.2°F-8.2°C 79% 4.0 mph W6.4 kmh W 9.0 mph14.5 kmh 30.23 in1023.7 mb 0.00 in0.0 mm 0.00 in/hr0.0 mm/hr 0.05 in1.3 mm
12:17 PM 22.8°F-5.1°C 17.6°F-8.0°C 80% 4.0 mph WSW6.4 kmh WSW 4.9 mph7.9 kmh 30.23 in1023.7 mb 0.00 in0.0 mm 0.00 in/hr0.0 mm/hr 0.05 in1.3 mm
12:12 PM 22.6°F-5.2°C 17.8°F-7.9°C 81% 4.9 mph WSW7.9 kmh WSW 6.9 mph11.1 kmh 30.23 in1023.7 mb 0.00 in0.0 mm 0.00 in/hr0.0 mm/hr 0.05 in1.3 mm
12:07 PM 22.5°F-5.3°C 17.2°F-8.2°C 80% 4.9 mph W7.9 kmh W 8.1 mph13.0 kmh 30.23 in1023.7 mb 0.00 in0.0 mm 0.00 in/hr0.0 mm/hr 0.05 in1.3 mm
12:02 PM 22.3°F-5.4°C 17.4°F-8.1°C 81% 4.9 mph SW7.9 kmh SW 8.1 mph13.0 kmh 30.23 in1023.7 mb 0.00 in0.0 mm 0.00 in/hr0.0 mm/hr 0.05 in1.3 mm
11:57 AM 22.1°F-5.5°C 17.2°F-8.2°C 81% 4.0 mph SSW6.4 kmh SSW 8.1 mph13.0 kmh 30.24 in1024.0 mb 0.00 in0.0 mm 0.00 in/hr0.0 mm/hr 0.05 in1.3 mm
11:52 AM 21.9°F-5.6°C 17.6°F-8.0°C 83% 4.0 mph SW6.4 kmh SW 10.1 mph16.3 kmh 30.24 in1024.0 mb 0.00 in0.0 mm 0.00 in/hr0.0 mm/hr 0.05 in1.3 mm
11:47 AM 21.7°F-5.7°C 17.1°F-8.3°C 82% 4.0 mph SW6.4 kmh SW 9.0 mph14.5 kmh 30.24 in1024.0 mb 0.00 in0.0 mm 0.00 in/hr0.0 mm/hr 0.05 in1.3 mm
11:42 AM 21.7°F-5.7°C 17.4°F-8.1°C 83% 2.9 mph SW4.7 kmh SW 6.0 mph9.7 kmh 30.25 in1024.4 mb 0.00 in0.0 mm 0.00 in/hr0.0 mm/hr 0.05 in1.3 mm
11:37 AM 21.6°F-5.8°C 17.2°F-8.2°C 83% 4.0 mph SW6.4 kmh SW 7.0 mph11.3 kmh 30.25 in1024.4 mb 0.00 in0.0 mm 0.00 in/hr0.0 mm/hr 0.05 in1.3 mm
11:32 AM 21.6°F-5.8°C 16.9°F-8.4°C 82% 2.9 mph SSW4.7 kmh SSW 6.0 mph9.7 kmh 30.25 in1024.4 mb 0.00 in0.0 mm 0.00 in/hr0.0 mm/hr 0.05 in1.3 mm
11:27 AM 21.6°F-5.8°C 17.2°F-8.2°C 83% 2.9 mph WSW4.7 kmh WSW 6.9 mph11.1 kmh 30.26 in1024.7 mb 0.00 in0.0 mm 0.00 in/hr0.0 mm/hr 0.05 in1.3 mm
11:22 AM 21.4°F-5.9°C 17.1°F-8.3°C 83% 2.9 mph SW4.7 kmh SW 6.9 mph11.1 kmh 30.26 in1024.7 mb 0.00 in0.0 mm 0.00 in/hr0.0 mm/hr 0.05 in1.3 mm
11:17 AM 21.4°F-5.9°C 17.1°F-8.3°C 83% 4.0 mph SW6.4 kmh SW 6.9 mph11.1 kmh 30.26 in1024.7 mb 0.00 in0.0 mm 0.00 in/hr0.0 mm/hr 0.05 in1.3 mm
11:12 AM 21.4°F-5.9°C 17.2°F-8.2°C 84% 4.0 mph SW6.4 kmh SW 8.1 mph13.0 kmh 30.26 in1024.7 mb 0.00 in0.0 mm 0.00 in/hr0.0 mm/hr 0.05 in1.3 mm
11:07 AM 21.0°F-6.1°C 16.9°F-8.4°C 84% 4.0 mph SW6.4 kmh SW 6.0 mph9.7 kmh 30.26 in1024.7 mb 0.00 in0.0 mm 0.00 in/hr0.0 mm/hr 0.05 in1.3 mm
11:02 AM 20.8°F-6.2°C 16.7°F-8.5°C 84% 2.9 mph SW4.7 kmh SW 8.1 mph13.0 kmh 30.26 in1024.7 mb 0.00 in0.0 mm 0.00 in/hr0.0 mm/hr 0.05 in1.3 mm
10:57 AM 20.8°F-6.2°C 16.7°F-8.5°C 84% 2.9 mph SSW4.7 kmh SSW 6.9 mph11.1 kmh 30.26 in1024.7 mb 0.00 in0.0 mm 0.00 in/hr0.0 mm/hr 0.05 in1.3 mm
10:52 AM 20.7°F-6.3°C 16.9°F-8.4°C 85% 4.0 mph SW6.4 kmh SW 6.9 mph11.1 kmh 30.26 in1024.7 mb 0.00 in0.0 mm 0.00 in/hr0.0 mm/hr 0.05 in1.3 mm
10:47 AM 20.5°F-6.4°C 16.7°F-8.5°C 85% 2.9 mph SW4.7 kmh SW 6.9 mph11.1 kmh 30.26 in1024.7 mb 0.00 in0.0 mm 0.00 in/hr0.0 mm/hr 0.05 in1.3 mm
10:42 AM 20.3°F-6.5°C 16.5°F-8.6°C 85% 2.0 mph SSW3.2 kmh SSW 7.0 mph11.3 kmh 30.26 in1024.7 mb 0.00 in0.0 mm 0.00 in/hr0.0 mm/hr 0.05 in1.3 mm
10:37 AM 20.3°F-6.5°C 16.7°F-8.5°C 86% 2.9 mph WSW4.7 kmh WSW 4.0 mph6.4 kmh 30.26 in1024.7 mb 0.00 in0.0 mm 0.00 in/hr0.0 mm/hr 0.05 in1.3 mm
10:32 AM 20.1°F-6.6°C 16.3°F-8.7°C 85% 4.9 mph WSW7.9 kmh WSW 8.1 mph13.0 kmh 30.26 in1024.7 mb 0.00 in0.0 mm 0.00 in/hr0.0 mm/hr 0.05 in1.3 mm
10:27 AM 19.9°F-6.7°C 16.2°F-8.8°C 85% 4.0 mph SW6.4 kmh SW 8.1 mph13.0 kmh 30.27 in1025.1 mb 0.00 in0.0 mm 0.00 in/hr0.0 mm/hr 0.05 in1.3 mm
10:22 AM 19.9°F-6.7°C 16.5°F-8.6°C 86% 2.9 mph SW4.7 kmh SW 6.9 mph11.1 kmh 30.27 in1025.1 mb 0.00 in0.0 mm 0.00 in/hr0.0 mm/hr 0.05 in1.3 mm
10:17 AM 19.8°F-6.8°C 16.5°F-8.6°C 87% 2.9 mph WSW4.7 kmh WSW 4.9 mph7.9 kmh 30.27 in1025.1 mb 0.00 in0.0 mm 0.00 in/hr0.0 mm/hr 0.05 in1.3 mm
10:12 AM 19.6°F-6.9°C 16.3°F-8.7°C 87% 2.9 mph SW4.7 kmh SW 4.9 mph7.9 kmh 30.27 in1025.1 mb 0.00 in0.0 mm 0.00 in/hr0.0 mm/hr 0.05 in1.3 mm
10:07 AM 19.6°F-6.9°C 16.3°F-8.7°C 87% 4.0 mph SW6.4 kmh SW 6.0 mph9.7 kmh 30.27 in1025.1 mb 0.00 in0.0 mm 0.00 in/hr0.0 mm/hr 0.05 in1.3 mm
10:02 AM 19.4°F-7.0°C 16.2°F-8.8°C 87% 4.0 mph SW6.4 kmh SW 6.9 mph11.1 kmh 30.27 in1025.1 mb 0.00 in0.0 mm 0.00 in/hr0.0 mm/hr 0.05 in1.3 mm
09:57 AM 19.2°F-7.1°C 16.3°F-8.7°C 88% 4.0 mph SW6.4 kmh SW 7.0 mph11.3 kmh 30.27 in1025.1 mb 0.00 in0.0 mm 0.00 in/hr0.0 mm/hr 0.05 in1.3 mm
09:52 AM 19.0°F-7.2°C 16.2°F-8.8°C 88% 4.0 mph SW6.4 kmh SW 6.0 mph9.7 kmh 30.28 in1025.4 mb 0.00 in0.0 mm 0.00 in/hr0.0 mm/hr 0.05 in1.3 mm
09:47 AM 18.9°F-7.3°C 16.0°F-8.9°C 88% 4.0 mph SSW6.4 kmh SSW 6.9 mph11.1 kmh 30.28 in1025.4 mb 0.00 in0.0 mm 0.00 in/hr0.0 mm/hr 0.05 in1.3 mm
09:42 AM 18.7°F-7.4°C 16.0°F-8.9°C 89% 4.0 mph SW6.4 kmh SW 6.9 mph11.1 kmh 30.28 in1025.4 mb 0.00 in0.0 mm 0.00 in/hr0.0 mm/hr 0.05 in1.3 mm
09:37 AM 18.3°F-7.6°C 15.6°F-9.1°C 89% 4.0 mph SSW6.4 kmh SSW 6.9 mph11.1 kmh 30.27 in1025.1 mb 0.00 in0.0 mm 0.00 in/hr0.0 mm/hr 0.05 in1.3 mm
09:32 AM 18.1°F-7.7°C 15.4°F-9.2°C 89% 4.0 mph SW6.4 kmh SW 8.1 mph13.0 kmh 30.28 in1025.4 mb 0.00 in0.0 mm 0.00 in/hr0.0 mm/hr 0.05 in1.3 mm
09:27 AM 18.1°F-7.7°C 15.6°F-9.1°C 90% 2.9 mph SSW4.7 kmh SSW 8.1 mph13.0 kmh 30.28 in1025.4 mb 0.00 in0.0 mm 0.00 in/hr0.0 mm/hr 0.05 in1.3 mm
09:22 AM 18.0°F-7.8°C 15.4°F-9.2°C 90% 4.0 mph SW6.4 kmh SW 6.0 mph9.7 kmh 30.28 in1025.4 mb 0.00 in0.0 mm 0.00 in/hr0.0 mm/hr 0.05 in1.3 mm
09:17 AM 17.8°F-7.9°C 15.1°F-9.4°C 89% 4.0 mph WSW6.4 kmh WSW 8.1 mph13.0 kmh 30.28 in1025.4 mb 0.00 in0.0 mm 0.00 in/hr0.0 mm/hr 0.05 in1.3 mm
09:12 AM 17.8°F-7.9°C 15.3°F-9.3°C 90% 4.0 mph SW6.4 kmh SW 8.9 mph14.3 kmh 30.28 in1025.4 mb 0.00 in0.0 mm 0.00 in/hr0.0 mm/hr 0.05 in1.3 mm
09:07 AM 17.6°F-8.0°C 15.3°F-9.3°C 90% 4.0 mph SW6.4 kmh SW 8.1 mph13.0 kmh 30.28 in1025.4 mb 0.00 in0.0 mm 0.00 in/hr0.0 mm/hr 0.05 in1.3 mm
09:02 AM 17.4°F-8.1°C 15.1°F-9.4°C 90% 4.0 mph SW6.4 kmh SW 8.1 mph13.0 kmh 30.28 in1025.4 mb 0.00 in0.0 mm 0.00 in/hr0.0 mm/hr 0.05 in1.3 mm
08:57 AM 17.2°F-8.2°C 14.9°F-9.5°C 90% 4.0 mph SW6.4 kmh SW 6.0 mph9.7 kmh 30.28 in1025.4 mb 0.00 in0.0 mm 0.00 in/hr0.0 mm/hr 0.05 in1.3 mm
08:52 AM 17.2°F-8.2°C 14.9°F-9.5°C 90% 4.0 mph WSW6.4 kmh WSW 6.9 mph11.1 kmh 30.28 in1025.4 mb 0.00 in0.0 mm 0.00 in/hr0.0 mm/hr 0.05 in1.3 mm
08:47 AM 17.1°F-8.3°C 14.7°F-9.6°C 90% 4.0 mph W6.4 kmh W 8.1 mph13.0 kmh 30.28 in1025.4 mb 0.00 in0.0 mm 0.00 in/hr0.0 mm/hr 0.05 in1.3 mm
08:42 AM 17.1°F-8.3°C 14.7°F-9.6°C 90% 4.0 mph SW6.4 kmh SW 8.1 mph13.0 kmh 30.28 in1025.4 mb 0.00 in0.0 mm 0.00 in/hr0.0 mm/hr 0.05 in1.3 mm
08:37 AM 16.9°F-8.4°C 14.5°F-9.7°C 90% 4.0 mph SSW6.4 kmh SSW 6.0 mph9.7 kmh 30.28 in1025.4 mb 0.00 in0.0 mm 0.00 in/hr0.0 mm/hr 0.05 in1.3 mm
08:32 AM 16.9°F-8.4°C 14.5°F-9.7°C 90% 4.0 mph SW6.4 kmh SW 6.9 mph11.1 kmh 30.28 in1025.4 mb 0.00 in0.0 mm 0.00 in/hr0.0 mm/hr 0.05 in1.3 mm
08:27 AM 16.9°F-8.4°C 14.5°F-9.7°C 90% 4.0 mph SSW6.4 kmh SSW 6.9 mph11.1 kmh 30.28 in1025.4 mb 0.00 in0.0 mm 0.00 in/hr0.0 mm/hr 0.05 in1.3 mm
08:22 AM 16.7°F-8.5°C 14.4°F-9.8°C 90% 4.0 mph SW6.4 kmh SW 6.9 mph11.1 kmh 30.28 in1025.4 mb 0.00 in0.0 mm 0.00 in/hr0.0 mm/hr 0.05 in1.3 mm
08:17 AM 16.5°F-8.6°C 14.2°F-9.9°C 90% 4.0 mph SSW6.4 kmh SSW 6.9 mph11.1 kmh 30.28 in1025.4 mb 0.00 in0.0 mm 0.00 in/hr0.0 mm/hr 0.05 in1.3 mm
08:12 AM 16.5°F-8.6°C 14.2°F-9.9°C 90% 4.0 mph W6.4 kmh W 8.1 mph13.0 kmh 30.29 in1025.7 mb 0.00 in0.0 mm 0.00 in/hr0.0 mm/hr 0.05 in1.3 mm
08:07 AM 16.5°F-8.6°C 14.2°F-9.9°C 90% 4.0 mph WSW6.4 kmh WSW 6.9 mph11.1 kmh 30.29 in1025.7 mb 0.00 in0.0 mm 0.00 in/hr0.0 mm/hr 0.05 in1.3 mm
08:02 AM 16.3°F-8.7°C 14.0°F-10.0°C 90% 4.9 mph WSW7.9 kmh WSW 8.1 mph13.0 kmh 30.29 in1025.7 mb 0.00 in0.0 mm 0.00 in/hr0.0 mm/hr 0.05 in1.3 mm
07:57 AM 16.3°F-8.7°C 14.0°F-10.0°C 90% 4.9 mph SW7.9 kmh SW 8.9 mph14.3 kmh 30.29 in1025.7 mb 0.00 in0.0 mm 0.00 in/hr0.0 mm/hr 0.05 in1.3 mm
07:52 AM 16.3°F-8.7°C 14.0°F-10.0°C 90% 4.0 mph WSW6.4 kmh WSW 8.1 mph13.0 kmh 30.29 in1025.7 mb 0.00 in0.0 mm 0.00 in/hr0.0 mm/hr 0.05 in1.3 mm
07:47 AM 16.2°F-8.8°C 13.8°F-10.1°C 90% 4.0 mph WSW6.4 kmh WSW 6.9 mph11.1 kmh 30.29 in1025.7 mb 0.00 in0.0 mm 0.00 in/hr0.0 mm/hr 0.05 in1.3 mm
07:42 AM 16.2°F-8.8°C 14.0°F-10.0°C 91% 4.0 mph WSW6.4 kmh WSW 6.9 mph11.1 kmh 30.29 in1025.7 mb 0.00 in0.0 mm 0.00 in/hr0.0 mm/hr 0.05 in1.3 mm
07:37 AM 16.2°F-8.8°C 14.0°F-10.0°C 91% 2.9 mph WSW4.7 kmh WSW 6.0 mph9.7 kmh 30.29 in1025.7 mb 0.00 in0.0 mm 0.00 in/hr0.0 mm/hr 0.05 in1.3 mm
07:32 AM 16.2°F-8.8°C 13.8°F-10.1°C 90% 2.9 mph SW4.7 kmh SW 7.0 mph11.3 kmh 30.29 in1025.7 mb 0.00 in0.0 mm 0.00 in/hr0.0 mm/hr 0.05 in1.3 mm
07:27 AM 16.2°F-8.8°C 13.8°F-10.1°C 90% 2.9 mph SW4.7 kmh SW 6.0 mph9.7 kmh 30.29 in1025.7 mb 0.00 in0.0 mm 0.00 in/hr0.0 mm/hr 0.05 in1.3 mm
07:22 AM 16.2°F-8.8°C 13.8°F-10.1°C 90% 2.9 mph SW4.7 kmh SW 6.0 mph9.7 kmh 30.29 in1025.7 mb 0.00 in0.0 mm 0.00 in/hr0.0 mm/hr 0.05 in1.3 mm
07:17 AM 16.2°F-8.8°C 13.8°F-10.1°C 90% 4.0 mph WSW6.4 kmh WSW 6.0 mph9.7 kmh 30.29 in1025.7 mb 0.00 in0.0 mm 0.00 in/hr0.0 mm/hr 0.05 in1.3 mm
07:12 AM 16.3°F-8.7°C 14.0°F-10.0°C 90% 2.9 mph WSW4.7 kmh WSW 4.9 mph7.9 kmh 30.29 in1025.7 mb 0.00 in0.0 mm 0.00 in/hr0.0 mm/hr 0.05 in1.3 mm
07:07 AM 16.3°F-8.7°C 14.0°F-10.0°C 90% 4.0 mph SW6.4 kmh SW 6.9 mph11.1 kmh 30.29 in1025.7 mb 0.00 in0.0 mm 0.00 in/hr0.0 mm/hr 0.05 in1.3 mm
07:02 AM 16.5°F-8.6°C 14.2°F-9.9°C 90% 4.0 mph W6.4 kmh W 6.9 mph11.1 kmh 30.29 in1025.7 mb 0.00 in0.0 mm 0.00 in/hr0.0 mm/hr 0.05 in1.3 mm
06:57 AM 16.9°F-8.4°C 14.2°F-9.9°C 89% 4.9 mph W7.9 kmh W 6.9 mph11.1 kmh 30.29 in1025.7 mb 0.00 in0.0 mm 0.00 in/hr0.0 mm/hr 0.05 in1.3 mm
06:52 AM 17.1°F-8.3°C 14.4°F-9.8°C 89% 4.9 mph SW7.9 kmh SW 8.1 mph13.0 kmh 30.29 in1025.7 mb 0.00 in0.0 mm 0.00 in/hr0.0 mm/hr 0.05 in1.3 mm
06:47 AM 17.2°F-8.2°C 14.5°F-9.7°C 89% 4.0 mph WSW6.4 kmh WSW 8.1 mph13.0 kmh 30.29 in1025.7 mb 0.00 in0.0 mm 0.00 in/hr0.0 mm/hr 0.05 in1.3 mm
06:42 AM 17.2°F-8.2°C 14.5°F-9.7°C 89% 4.0 mph WSW6.4 kmh WSW 7.0 mph11.3 kmh 30.29 in1025.7 mb 0.00 in0.0 mm 0.00 in/hr0.0 mm/hr 0.05 in1.3 mm
06:37 AM 17.2°F-8.2°C 14.5°F-9.7°C 89% 4.0 mph WSW6.4 kmh WSW 6.0 mph9.7 kmh 30.29 in1025.7 mb 0.00 in0.0 mm 0.00 in/hr0.0 mm/hr 0.05 in1.3 mm
06:32 AM 17.2°F-8.2°C 14.5°F-9.7°C 89% 4.9 mph W7.9 kmh W 8.1 mph13.0 kmh 30.30 in1026.1 mb 0.00 in0.0 mm 0.00 in/hr0.0 mm/hr 0.05 in1.3 mm
06:27 AM 17.2°F-8.2°C 14.5°F-9.7°C 89% 4.9 mph WSW7.9 kmh WSW 8.1 mph13.0 kmh 30.30 in1026.1 mb 0.00 in0.0 mm 0.00 in/hr0.0 mm/hr 0.05 in1.3 mm
06:22 AM 17.4°F-8.1°C 14.7°F-9.6°C 89% 4.9 mph W7.9 kmh W 8.9 mph14.3 kmh 30.29 in1025.7 mb 0.00 in0.0 mm 0.00 in/hr0.0 mm/hr 0.05 in1.3 mm
06:17 AM 17.4°F-8.1°C 14.7°F-9.6°C 89% 6.0 mph WSW9.7 kmh WSW 11.0 mph17.7 kmh 30.30 in1026.1 mb 0.00 in0.0 mm 0.00 in/hr0.0 mm/hr 0.05 in1.3 mm
06:12 AM 17.4°F-8.1°C 14.7°F-9.6°C 89% 4.9 mph W7.9 kmh W 10.1 mph16.3 kmh 30.30 in1026.1 mb 0.00 in0.0 mm 0.00 in/hr0.0 mm/hr 0.05 in1.3 mm
06:07 AM 17.4°F-8.1°C 14.5°F-9.7°C 88% 4.0 mph W6.4 kmh W 8.1 mph13.0 kmh 30.30 in1026.1 mb 0.00 in0.0 mm 0.00 in/hr0.0 mm/hr 0.05 in1.3 mm
06:02 AM 17.4°F-8.1°C 14.5°F-9.7°C 88% 2.9 mph W4.7 kmh W 6.9 mph11.1 kmh 30.30 in1026.1 mb 0.00 in0.0 mm 0.00 in/hr0.0 mm/hr 0.05 in1.3 mm
05:57 AM 17.6°F-8.0°C 14.7°F-9.6°C 88% 4.0 mph WSW6.4 kmh WSW 8.1 mph13.0 kmh 30.30 in1026.1 mb 0.00 in0.0 mm 0.00 in/hr0.0 mm/hr 0.05 in1.3 mm
05:52 AM 17.6°F-8.0°C 14.7°F-9.6°C 88% 4.0 mph WSW6.4 kmh WSW 9.0 mph14.5 kmh 30.31 in1026.4 mb 0.00 in0.0 mm 0.00 in/hr0.0 mm/hr 0.05 in1.3 mm
05:47 AM 17.4°F-8.1°C 14.2°F-9.9°C 87% 4.9 mph W7.9 kmh W 8.1 mph13.0 kmh 30.31 in1026.4 mb 0.00 in0.0 mm 0.00 in/hr0.0 mm/hr 0.05 in1.3 mm
05:42 AM 17.4°F-8.1°C 14.2°F-9.9°C 87% 4.9 mph WNW7.9 kmh WNW 11.0 mph17.7 kmh 30.31 in1026.4 mb 0.00 in0.0 mm 0.00 in/hr0.0 mm/hr 0.05 in1.3 mm
05:37 AM 17.4°F-8.1°C 14.5°F-9.7°C 88% 4.9 mph W7.9 kmh W 11.0 mph17.7 kmh 30.31 in1026.4 mb 0.00 in0.0 mm 0.00 in/hr0.0 mm/hr 0.05 in1.3 mm
05:32 AM 17.4°F-8.1°C 14.2°F-9.9°C 87% 4.9 mph WSW7.9 kmh WSW 8.9 mph14.3 kmh 30.31 in1026.4 mb 0.00 in0.0 mm 0.00 in/hr0.0 mm/hr 0.05 in1.3 mm
05:27 AM 17.4°F-8.1°C 14.2°F-9.9°C 87% 4.9 mph W7.9 kmh W 8.1 mph13.0 kmh 30.31 in1026.4 mb 0.00 in0.0 mm 0.00 in/hr0.0 mm/hr 0.05 in1.3 mm
05:22 AM 17.4°F-8.1°C 14.2°F-9.9°C 87% 4.0 mph W6.4 kmh W 10.1 mph16.3 kmh 30.31 in1026.4 mb 0.00 in0.0 mm 0.00 in/hr0.0 mm/hr 0.05 in1.3 mm
05:17 AM 17.4°F-8.1°C 14.2°F-9.9°C 87% 4.0 mph W6.4 kmh W 9.0 mph14.5 kmh 30.31 in1026.4 mb 0.01 in0.3 mm 0.00 in/hr0.0 mm/hr 0.05 in1.3 mm
05:12 AM 17.4°F-8.1°C 14.2°F-9.9°C 87% 4.0 mph W6.4 kmh W 6.9 mph11.1 kmh 30.31 in1026.4 mb 0.01 in0.3 mm 0.00 in/hr0.0 mm/hr 0.05 in1.3 mm
05:07 AM 17.4°F-8.1°C 14.2°F-9.9°C 87% 4.0 mph W6.4 kmh W 8.9 mph14.3 kmh 30.31 in1026.4 mb 0.01 in0.3 mm 0.00 in/hr0.0 mm/hr 0.05 in1.3 mm
05:02 AM 17.4°F-8.1°C 14.2°F-9.9°C 87% 2.9 mph W4.7 kmh W 6.9 mph11.1 kmh 30.31 in1026.4 mb 0.01 in0.3 mm 0.00 in/hr0.0 mm/hr 0.05 in1.3 mm
04:57 AM 17.4°F-8.1°C 14.2°F-9.9°C 87% 2.0 mph W3.2 kmh W 4.9 mph7.9 kmh 30.32 in1026.8 mb 0.01 in0.3 mm 0.00 in/hr0.0 mm/hr 0.05 in1.3 mm
04:52 AM 17.4°F-8.1°C 14.2°F-9.9°C 87% 2.0 mph W3.2 kmh W 4.9 mph7.9 kmh 30.32 in1026.8 mb 0.01 in0.3 mm 0.00 in/hr0.0 mm/hr 0.05 in1.3 mm
04:47 AM 17.4°F-8.1°C 14.2°F-9.9°C 87% 2.0 mph WNW3.2 kmh WNW 4.0 mph6.4 kmh 30.32 in1026.8 mb 0.01 in0.3 mm 0.00 in/hr0.0 mm/hr 0.05 in1.3 mm
04:42 AM 17.4°F-8.1°C 14.2°F-9.9°C 87% 2.0 mph NW3.2 kmh NW 6.0 mph9.7 kmh 30.31 in1026.4 mb 0.01 in0.3 mm 0.00 in/hr0.0 mm/hr 0.05 in1.3 mm
04:37 AM 17.4°F-8.1°C 14.2°F-9.9°C 87% 2.0 mph WSW3.2 kmh WSW 4.9 mph7.9 kmh 30.31 in1026.4 mb 0.01 in0.3 mm 0.00 in/hr0.0 mm/hr 0.05 in1.3 mm
04:32 AM 17.4°F-8.1°C 14.2°F-9.9°C 87% 2.0 mph WNW3.2 kmh WNW 6.0 mph9.7 kmh 30.31 in1026.4 mb 0.02 in0.5 mm 0.00 in/hr0.0 mm/hr 0.05 in1.3 mm
04:27 AM 17.4°F-8.1°C 14.2°F-9.9°C 87% 2.0 mph W3.2 kmh W 6.0 mph9.7 kmh 30.32 in1026.8 mb 0.02 in0.5 mm 0.12 in/hr3.0 mm/hr 0.05 in1.3 mm
04:22 AM 17.4°F-8.1°C 14.2°F-9.9°C 87% 2.0 mph W3.2 kmh W 6.9 mph11.1 kmh 30.32 in1026.8 mb 0.01 in0.3 mm 0.00 in/hr0.0 mm/hr 0.04 in1.0 mm
04:17 AM 17.2°F-8.2°C 14.0°F-10.0°C 87% 2.0 mph NW3.2 kmh NW 5.0 mph8.0 kmh 30.31 in1026.4 mb 0.01 in0.3 mm 0.00 in/hr0.0 mm/hr 0.04 in1.0 mm
04:12 AM 17.2°F-8.2°C 14.4°F-9.8°C 88% 2.0 mph W3.2 kmh W 4.0 mph6.4 kmh 30.31 in1026.4 mb 0.01 in0.3 mm 0.00 in/hr0.0 mm/hr 0.04 in1.0 mm
04:07 AM 17.2°F-8.2°C 14.4°F-9.8°C 88% 2.0 mph NW3.2 kmh NW 4.0 mph6.4 kmh 30.31 in1026.4 mb 0.01 in0.3 mm 0.00 in/hr0.0 mm/hr 0.04 in1.0 mm
04:02 AM 17.2°F-8.2°C 14.4°F-9.8°C 88% 2.0 mph W3.2 kmh W 6.0 mph9.7 kmh 30.31 in1026.4 mb 0.01 in0.3 mm 0.00 in/hr0.0 mm/hr 0.04 in1.0 mm
03:57 AM 17.1°F-8.3°C 14.2°F-9.9°C 88% 2.9 mph W4.7 kmh W 4.0 mph6.4 kmh 30.31 in1026.4 mb 0.01 in0.3 mm 0.00 in/hr0.0 mm/hr 0.04 in1.0 mm
03:52 AM 17.1°F-8.3°C 14.2°F-9.9°C 88% 4.0 mph NW6.4 kmh NW 6.9 mph11.1 kmh 30.31 in1026.4 mb 0.01 in0.3 mm 0.00 in/hr0.0 mm/hr 0.04 in1.0 mm
03:47 AM 16.9°F-8.4°C 14.2°F-9.9°C 89% 2.9 mph NW4.7 kmh NW 8.0 mph12.9 kmh 30.31 in1026.4 mb 0.01 in0.3 mm 0.00 in/hr0.0 mm/hr 0.04 in1.0 mm
03:42 AM 16.9°F-8.4°C 14.5°F-9.7°C 90% 4.0 mph WNW6.4 kmh WNW 6.9 mph11.1 kmh 30.31 in1026.4 mb 0.01 in0.3 mm 0.00 in/hr0.0 mm/hr 0.04 in1.0 mm
03:37 AM 16.9°F-8.4°C 14.2°F-9.9°C 89% 4.0 mph WSW6.4 kmh WSW 8.1 mph13.0 kmh 30.31 in1026.4 mb 0.01 in0.3 mm 0.12 in/hr3.0 mm/hr 0.04 in1.0 mm
03:32 AM 16.9°F-8.4°C 14.2°F-9.9°C 89% 4.9 mph WNW7.9 kmh WNW 11.0 mph17.7 kmh 30.31 in1026.4 mb 0.00 in0.0 mm 0.00 in/hr0.0 mm/hr 0.03 in0.8 mm
03:27 AM 16.9°F-8.4°C 14.2°F-9.9°C 89% 6.0 mph NNW9.7 kmh NNW 10.1 mph16.3 kmh 30.30 in1026.1 mb 0.00 in0.0 mm 0.00 in/hr0.0 mm/hr 0.03 in0.8 mm
03:22 AM 16.9°F-8.4°C 14.0°F-10.0°C 88% 4.9 mph W7.9 kmh W 12.1 mph19.5 kmh 30.30 in1026.1 mb 0.01 in0.3 mm 0.00 in/hr0.0 mm/hr 0.03 in0.8 mm
03:17 AM 16.9°F-8.4°C 14.0°F-10.0°C 88% 4.0 mph W6.4 kmh W 8.1 mph13.0 kmh 30.30 in1026.1 mb 0.01 in0.3 mm 0.00 in/hr0.0 mm/hr 0.03 in0.8 mm
03:12 AM 16.9°F-8.4°C 14.0°F-10.0°C 88% 4.0 mph NW6.4 kmh NW 8.9 mph14.3 kmh 30.30 in1026.1 mb 0.01 in0.3 mm 0.00 in/hr0.0 mm/hr 0.03 in0.8 mm
03:07 AM 17.1°F-8.3°C 13.8°F-10.1°C 87% 4.0 mph NW6.4 kmh NW 10.1 mph16.3 kmh 30.30 in1026.1 mb 0.01 in0.3 mm 0.00 in/hr0.0 mm/hr 0.03 in0.8 mm
03:02 AM 17.1°F-8.3°C 13.6°F-10.2°C 86% 4.0 mph W6.4 kmh W 6.9 mph11.1 kmh 30.30 in1026.1 mb 0.01 in0.3 mm 0.00 in/hr0.0 mm/hr 0.03 in0.8 mm
02:57 AM 17.1°F-8.3°C 13.3°F-10.4°C 85% 4.0 mph W6.4 kmh W 10.1 mph16.3 kmh 30.30 in1026.1 mb 0.02 in0.5 mm 0.00 in/hr0.0 mm/hr 0.03 in0.8 mm
02:52 AM 17.1°F-8.3°C 13.3°F-10.4°C 85% 2.9 mph WNW4.7 kmh WNW 7.0 mph11.3 kmh 30.30 in1026.1 mb 0.02 in0.5 mm 0.00 in/hr0.0 mm/hr 0.03 in0.8 mm
02:47 AM 16.9°F-8.4°C 13.5°F-10.3°C 86% 2.9 mph W4.7 kmh W 6.0 mph9.7 kmh 30.30 in1026.1 mb 0.02 in0.5 mm 0.00 in/hr0.0 mm/hr 0.03 in0.8 mm
02:42 AM 16.9°F-8.4°C 13.5°F-10.3°C 86% 2.0 mph W3.2 kmh W 6.0 mph9.7 kmh 30.30 in1026.1 mb 0.02 in0.5 mm 0.00 in/hr0.0 mm/hr 0.03 in0.8 mm
02:37 AM 16.9°F-8.4°C 13.6°F-10.2°C 87% 2.9 mph NW4.7 kmh NW 4.9 mph7.9 kmh 30.30 in1026.1 mb 0.02 in0.5 mm 0.00 in/hr0.0 mm/hr 0.03 in0.8 mm
02:32 AM 16.7°F-8.5°C 13.5°F-10.3°C 87% 2.9 mph W4.7 kmh W 4.9 mph7.9 kmh 30.30 in1026.1 mb 0.02 in0.5 mm 0.00 in/hr0.0 mm/hr 0.03 in0.8 mm
02:27 AM 16.5°F-8.6°C 13.6°F-10.2°C 88% 2.9 mph WNW4.7 kmh WNW 8.1 mph13.0 kmh 30.30 in1026.1 mb 0.02 in0.5 mm 0.00 in/hr0.0 mm/hr 0.03 in0.8 mm
02:22 AM 16.5°F-8.6°C 13.8°F-10.1°C 89% 4.0 mph WNW6.4 kmh WNW 6.9 mph11.1 kmh 30.30 in1026.1 mb 0.02 in0.5 mm 0.00 in/hr0.0 mm/hr 0.02 in0.5 mm
02:17 AM 16.3°F-8.7°C 13.6°F-10.2°C 89% 4.0 mph NW6.4 kmh NW 8.1 mph13.0 kmh 30.30 in1026.1 mb 0.02 in0.5 mm 0.00 in/hr0.0 mm/hr 0.02 in0.5 mm
02:12 AM 16.5°F-8.6°C 13.8°F-10.1°C 89% 4.0 mph WSW6.4 kmh WSW 8.1 mph13.0 kmh 30.30 in1026.1 mb 0.02 in0.5 mm 0.00 in/hr0.0 mm/hr 0.02 in0.5 mm
02:07 AM 16.5°F-8.6°C 13.8°F-10.1°C 89% 4.0 mph NW6.4 kmh NW 8.9 mph14.3 kmh 30.30 in1026.1 mb 0.02 in0.5 mm 0.00 in/hr0.0 mm/hr 0.02 in0.5 mm
02:02 AM 16.5°F-8.6°C 13.6°F-10.2°C 88% 4.9 mph WSW7.9 kmh WSW 11.0 mph17.7 kmh 30.30 in1026.1 mb 0.02 in0.5 mm 0.01 in/hr0.3 mm/hr 0.02 in0.5 mm
01:57 AM 16.5°F-8.6°C 13.8°F-10.1°C 89% 4.9 mph W7.9 kmh W 10.1 mph16.3 kmh 30.30 in1026.1 mb 0.01 in0.3 mm 0.00 in/hr0.0 mm/hr 0.01 in0.3 mm
01:52 AM 16.5°F-8.6°C 13.6°F-10.2°C 88% 4.9 mph WNW7.9 kmh WNW 12.1 mph19.5 kmh 30.30 in1026.1 mb 0.01 in0.3 mm 0.00 in/hr0.0 mm/hr 0.01 in0.3 mm
01:47 AM 16.5°F-8.6°C 13.6°F-10.2°C 88% 4.9 mph N7.9 kmh N 11.0 mph17.7 kmh 30.30 in1026.1 mb 0.01 in0.3 mm 0.00 in/hr0.0 mm/hr 0.01 in0.3 mm
01:42 AM 16.7°F-8.5°C 13.8°F-10.1°C 88% 4.9 mph WSW7.9 kmh WSW 8.9 mph14.3 kmh 30.29 in1025.7 mb 0.01 in0.3 mm 0.00 in/hr0.0 mm/hr 0.01 in0.3 mm
01:37 AM 16.7°F-8.5°C 13.5°F-10.3°C 87% 4.9 mph WNW7.9 kmh WNW 12.1 mph19.5 kmh 30.29 in1025.7 mb 0.01 in0.3 mm 0.00 in/hr0.0 mm/hr 0.01 in0.3 mm
01:32 AM 16.7°F-8.5°C 13.8°F-10.1°C 88% 4.9 mph WNW7.9 kmh WNW 13.0 mph20.9 kmh 30.29 in1025.7 mb 0.01 in0.3 mm 0.12 in/hr3.0 mm/hr 0.01 in0.3 mm
01:27 AM 16.7°F-8.5°C 13.8°F-10.1°C 88% 4.9 mph NW7.9 kmh NW 8.9 mph14.3 kmh 30.29 in1025.7 mb 0.00 in0.0 mm 0.00 in/hr0.0 mm/hr 0.00 in0.0 mm
01:22 AM 16.7°F-8.5°C 13.5°F-10.3°C 87% 4.9 mph WSW7.9 kmh WSW 13.0 mph20.9 kmh 30.29 in1025.7 mb 0.00 in0.0 mm 0.00 in/hr0.0 mm/hr 0.00 in0.0 mm
01:17 AM 16.5°F-8.6°C 13.6°F-10.2°C 88% 4.9 mph WNW7.9 kmh WNW 11.0 mph17.7 kmh 30.28 in1025.4 mb 0.00 in0.0 mm 0.00 in/hr0.0 mm/hr 0.00 in0.0 mm
01:12 AM 16.5°F-8.6°C 13.8°F-10.1°C 89% 4.9 mph W7.9 kmh W 8.9 mph14.3 kmh 30.28 in1025.4 mb 0.00 in0.0 mm 0.00 in/hr0.0 mm/hr 0.00 in0.0 mm
01:07 AM 16.5°F-8.6°C 14.2°F-9.9°C 90% 6.0 mph NW9.7 kmh NW 8.9 mph14.3 kmh 30.28 in1025.4 mb 0.00 in0.0 mm 0.00 in/hr0.0 mm/hr 0.00 in0.0 mm
01:02 AM 16.5°F-8.6°C 13.8°F-10.1°C 89% 4.9 mph W7.9 kmh W 12.0 mph19.3 kmh 30.28 in1025.4 mb 0.00 in0.0 mm 0.00 in/hr0.0 mm/hr 0.00 in0.0 mm
12:57 AM 16.7°F-8.5°C 13.8°F-10.1°C 88% 6.0 mph NW9.7 kmh NW 10.1 mph16.3 kmh 30.28 in1025.4 mb 0.00 in0.0 mm 0.00 in/hr0.0 mm/hr 0.00 in0.0 mm
12:52 AM 16.7°F-8.5°C 13.8°F-10.1°C 88% 4.9 mph WSW7.9 kmh WSW 12.1 mph19.5 kmh 30.28 in1025.4 mb 0.00 in0.0 mm 0.00 in/hr0.0 mm/hr 0.00 in0.0 mm
12:47 AM 16.9°F-8.4°C 13.5°F-10.3°C 86% 4.0 mph WNW6.4 kmh WNW 11.0 mph17.7 kmh 30.27 in1025.1 mb 0.00 in0.0 mm 0.00 in/hr0.0 mm/hr 0.00 in0.0 mm
12:42 AM 17.1°F-8.3°C 13.3°F-10.4°C 85% 4.0 mph WSW6.4 kmh WSW 11.0 mph17.7 kmh 30.27 in1025.1 mb 0.00 in0.0 mm 0.00 in/hr0.0 mm/hr 0.00 in0.0 mm
12:37 AM 17.1°F-8.3°C 13.1°F-10.5°C 84% 4.9 mph W7.9 kmh W 8.1 mph13.0 kmh 30.28 in1025.4 mb 0.00 in0.0 mm 0.00 in/hr0.0 mm/hr 0.00 in0.0 mm
12:32 AM 17.1°F-8.3°C 12.7°F-10.7°C 83% 4.0 mph W6.4 kmh W 10.1 mph16.3 kmh 30.28 in1025.4 mb 0.00 in0.0 mm 0.00 in/hr0.0 mm/hr 0.00 in0.0 mm
12:27 AM 17.2°F-8.2°C 12.9°F-10.6°C 83% 2.9 mph WNW4.7 kmh WNW 6.0 mph9.7 kmh 30.28 in1025.4 mb 0.00 in0.0 mm 0.00 in/hr0.0 mm/hr 0.00 in0.0 mm
12:22 AM 17.2°F-8.2°C 12.7°F-10.7°C 82% 4.0 mph WNW6.4 kmh WNW 12.1 mph19.5 kmh 30.28 in1025.4 mb 0.00 in0.0 mm 0.00 in/hr0.0 mm/hr 0.00 in0.0 mm
12:17 AM 17.2°F-8.2°C 12.7°F-10.7°C 82% 4.0 mph WNW6.4 kmh WNW 8.1 mph13.0 kmh 30.29 in1025.7 mb 0.00 in0.0 mm 0.00 in/hr0.0 mm/hr 0.00 in0.0 mm
12:12 AM 17.4°F-8.1°C 12.9°F-10.6°C 82% 4.9 mph NNW7.9 kmh NNW 13.0 mph20.9 kmh 30.29 in1025.7 mb 0.00 in0.0 mm 0.00 in/hr0.0 mm/hr 0.00 in0.0 mm
12:07 AM 17.2°F-8.2°C 12.7°F-10.7°C 82% 6.0 mph W9.7 kmh W 11.0 mph17.7 kmh 30.29 in1025.7 mb 0.00 in0.0 mm 0.00 in/hr0.0 mm/hr 0.00 in0.0 mm
12:02 AM 17.4°F-8.1°C 12.9°F-10.6°C 82% 4.9 mph W7.9 kmh W 14.1 mph22.7 kmh 30.29 in1025.7 mb 0.00 in0.0 mm 0.00 in/hr0.0 mm/hr 0.00 in0.0 mm